Time;durP1;ratioP1;P1;durP2;ratioP2;P2;SDS_P1;SDS_P2;PMS_P1;PMS_P2;Temp;Humidity;BMP_temperature;BMP_pressure;BME280_temperature;BME280_humidity;BME280_pressure;Samples;Min_cycle;Max_cycle;Signal;HPM_P1;HPM_P2
2022/11/30 00:00:34;;;;;;;;;;;22.70;84.20;;;;;;5046764;28;20360;-71
2022/11/30 00:03:02;;;;;;;;;;;22.80;84.10;;;;;;5056090;28;19912;-72
2022/11/30 00:05:28;;;;;;;;;;;22.90;83.90;;;;;;5059483;28;19915;-72
2022/11/30 00:07:55;;;;;;;;;;;22.90;83.90;;;;;;5054149;28;19932;-71
2022/11/30 00:10:22;;;;;;;;;;;23.00;83.10;;;;;;5052279;28;20846;-72
2022/11/30 00:12:49;;;;;;;;;;;22.80;84.10;;;;;;5060273;28;19920;-69
2022/11/30 00:15:16;;;;;;;;;;;23.10;83.60;;;;;;5057404;28;19954;-72
2022/11/30 00:17:43;;;;;;;;;;;23.20;82.60;;;;;;5063977;28;19908;-71
2022/11/30 00:20:10;;;;;;;;;;;23.40;82.70;;;;;;5053164;28;19912;-71
2022/11/30 00:22:37;;;;;;;;;;;23.30;81.30;;;;;;5050053;28;20007;-72
2022/11/30 00:25:04;;;;;;;;;;;23.40;81.40;;;;;;5053952;28;19920;-70
2022/11/30 00:27:31;;;;;;;;;;;23.40;81.60;;;;;;5052219;28;19927;-70
2022/11/30 00:29:58;;;;;;;;;;;23.50;82.00;;;;;;5048570;28;19921;-70
2022/11/30 00:32:25;;;;;;;;;;;23.50;80.80;;;;;;5048276;28;19971;-68
2022/11/30 00:34:52;;;;;;;;;;;23.50;81.20;;;;;;5053498;28;19913;-71
2022/11/30 00:37:19;;;;;;;;;;;23.40;82.50;;;;;;5044661;28;19916;-72
2022/11/30 00:39:46;;;;;;;;;;;23.30;80.10;;;;;;5046361;28;19947;-70
2022/11/30 00:42:12;;;;;;;;;;;22.60;82.90;;;;;;5049326;28;20012;-78
2022/11/30 00:44:39;;;;;;;;;;;22.40;84.40;;;;;;5045798;28;20008;-75
2022/11/30 00:47:06;;;;;;;;;;;22.30;85.30;;;;;;5057891;28;19908;-76
2022/11/30 00:49:32;;;;;;;;;;;22.40;84.50;;;;;;5041868;28;19966;-74
2022/11/30 00:52:00;;;;;;;;;;;22.40;85.50;;;;;;5049475;28;19995;-71
2022/11/30 00:54:27;;;;;;;;;;;22.70;84.10;;;;;;5054887;28;19959;-75
2022/11/30 00:56:53;;;;;;;;;;;22.70;85.20;;;;;;5057849;28;19916;-74
2022/11/30 00:59:20;;;;;;;;;;;22.90;84.10;;;;;;5054973;28;19915;-75
2022/11/30 01:01:47;;;;;;;;;;;23.10;83.10;;;;;;5057147;28;19913;-74
2022/11/30 01:04:13;;;;;;;;;;;23.00;83.40;;;;;;5057758;28;19908;-78
2022/11/30 01:06:40;;;;;;;;;;;22.70;84.80;;;;;;5056688;28;19958;-76
2022/11/30 01:09:06;;;;;;;;;;;22.50;85.00;;;;;;5058627;28;20437;-77
2022/11/30 01:11:33;;;;;;;;;;;22.70;85.80;;;;;;5056627;28;19999;-73
2022/11/30 01:14:01;;;;;;;;;;;22.70;85.40;;;;;;5058163;28;19919;-74
2022/11/30 01:16:29;;;;;;;;;;;22.70;85.70;;;;;;5056001;28;20095;-77
2022/11/30 01:18:56;;;;;;;;;;;22.70;85.30;;;;;;5056411;28;20113;-74
2022/11/30 01:21:24;;;;;;;;;;;22.90;85.60;;;;;;5056552;28;19958;-74
2022/11/30 01:23:51;;;;;;;;;;;23.10;85.00;;;;;;5058335;28;19920;-76
2022/11/30 01:26:19;;;;;;;;;;;23.20;84.00;;;;;;5056496;28;20021;-78
2022/11/30 01:28:53;;;;;;;;;;;23.20;84.20;;;;;;5057179;28;19916;-75
2022/11/30 01:31:20;;;;;;;;;;;23.20;83.80;;;;;;5057956;28;19909;-75
2022/11/30 01:33:51;;;;;;;;;;;23.20;83.60;;;;;;5056326;28;19917;-73
2022/11/30 01:36:22;;;;;;;;;;;23.30;83.50;;;;;;5057727;28;19909;-76
2022/11/30 01:38:50;;;;;;;;;;;23.00;84.20;;;;;;5057237;28;20307;-74
2022/11/30 01:41:18;;;;;;;;;;;23.10;83.70;;;;;;5058363;28;19920;-75
2022/11/30 01:43:47;;;;;;;;;;;23.10;84.90;;;;;;5058069;28;19999;-74
2022/11/30 01:46:32;;;;;;;;;;;22.80;86.10;;;;;;5058116;28;19916;-77
2022/11/30 01:49:04;;;;;;;;;;;22.90;86.30;;;;;;5056904;28;19946;-75
2022/11/30 01:51:35;;;;;;;;;;;23.10;85.70;;;;;;5057152;28;19961;-75
2022/11/30 01:54:03;;;;;;;;;;;23.10;84.90;;;;;;5057266;28;19916;-77
2022/11/30 01:56:30;;;;;;;;;;;23.00;85.00;;;;;;5057836;28;19962;-73
2022/11/30 01:58:56;;;;;;;;;;;23.20;85.70;;;;;;5054828;28;20384;-75
2022/11/30 02:01:24;;;;;;;;;;;23.50;83.90;;;;;;5056985;28;19951;-76
2022/11/30 02:04:02;;;;;;;;;;;23.40;84.10;;;;;;5057767;28;19915;-75
2022/11/30 02:06:29;;;;;;;;;;;23.60;83.80;;;;;;5056952;28;20159;-73
2022/11/30 02:08:56;;;;;;;;;;;23.90;84.10;;;;;;5055585;28;19908;-75
2022/11/30 02:11:23;;;;;;;;;;;23.80;83.30;;;;;;5057331;28;19909;-76
2022/11/30 02:13:58;;;;;;;;;;;24.20;82.30;;;;;;5057945;28;19917;-75
2022/11/30 02:17:06;;;;;;;;;;;24.30;81.40;;;;;;5055526;28;20410;-75
2022/11/30 02:19:44;;;;;;;;;;;24.10;82.20;;;;;;5033828;28;20410;-75
2022/11/30 02:22:23;;;;;;;;;;;24.40;81.70;;;;;;5016734;28;19921;-75
2022/11/30 02:24:50;;;;;;;;;;;24.50;80.90;;;;;;5049858;28;19921;-76
2022/11/30 02:27:19;;;;;;;;;;;24.00;81.20;;;;;;5056894;28;20269;-72
2022/11/30 02:29:48;;;;;;;;;;;23.80;82.40;;;;;;5056681;28;20003;-72
2022/11/30 02:32:35;;;;;;;;;;;23.70;83.30;;;;;;5055827;28;19920;-75
2022/11/30 02:35:04;;;;;;;;;;;23.70;83.20;;;;;;5055750;28;19915;-73
2022/11/30 02:37:31;;;;;;;;;;;23.40;83.40;;;;;;5056342;28;19916;-73
2022/11/30 02:39:58;;;;;;;;;;;23.20;84.10;;;;;;5054528;28;19909;-75
2022/11/30 02:42:25;;;;;;;;;;;23.10;84.60;;;;;;5056380;28;19991;-76
2022/11/30 02:44:52;;;;;;;;;;;23.10;84.40;;;;;;5056769;28;19940;-73
2022/11/30 02:47:45;;;;;;;;;;;23.20;84.50;;;;;;5056010;28;19966;-72
2022/11/30 02:50:23;;;;;;;;;;;23.00;84.00;;;;;;5054497;28;19931;-73
2022/11/30 02:52:50;;;;;;;;;;;22.90;84.20;;;;;;5055032;28;19969;-72
2022/11/30 02:55:18;;;;;;;;;;;22.70;84.60;;;;;;5055692;28;20381;-73
2022/11/30 02:57:45;;;;;;;;;;;22.70;84.60;;;;;;5055595;28;20253;-74
2022/11/30 03:00:12;;;;;;;;;;;22.60;84.10;;;;;;5055819;28;20404;-73
2022/11/30 03:02:39;;;;;;;;;;;22.70;83.40;;;;;;5055478;28;19997;-72
2022/11/30 03:05:06;;;;;;;;;;;22.70;84.10;;;;;;5055457;28;19912;-73
2022/11/30 03:07:33;;;;;;;;;;;22.90;84.30;;;;;;5056255;28;20013;-77
2022/11/30 03:09:59;;;;;;;;;;;22.70;84.20;;;;;;5056829;28;20416;-77
2022/11/30 03:12:26;;;;;;;;;;;22.50;83.90;;;;;;5055992;28;19923;-74
2022/11/30 03:14:53;;;;;;;;;;;22.80;84.10;;;;;;5056666;28;19912;-73
2022/11/30 03:17:19;;;;;;;;;;;22.80;83.10;;;;;;5055527;28;20269;-75
2022/11/30 03:19:46;;;;;;;;;;;22.60;84.60;;;;;;5055207;28;19905;-75
2022/11/30 03:22:13;;;;;;;;;;;22.50;84.50;;;;;;5055120;28;19966;-77
2022/11/30 03:24:39;;;;;;;;;;;22.50;84.70;;;;;;5056158;28;20103;-75
2022/11/30 03:27:06;;;;;;;;;;;22.50;84.90;;;;;;5055398;28;20418;-75
2022/11/30 03:29:33;;;;;;;;;;;22.60;85.70;;;;;;5057192;28;20383;-78
2022/11/30 03:31:59;;;;;;;;;;;22.90;84.70;;;;;;5055179;28;20398;-77
2022/11/30 03:34:27;;;;;;;;;;;23.10;84.20;;;;;;5055948;28;20110;-77
2022/11/30 03:36:54;;;;;;;;;;;23.00;84.60;;;;;;5053855;28;19912;-75
2022/11/30 03:39:22;;;;;;;;;;;23.00;85.00;;;;;;5055215;28;19962;-76
2022/11/30 03:41:48;;;;;;;;;;;22.80;85.20;;;;;;5055506;28;19909;-76
2022/11/30 03:44:15;;;;;;;;;;;22.70;85.30;;;;;;5055516;28;19908;-75
2022/11/30 03:46:42;;;;;;;;;;;22.70;86.20;;;;;;5055275;28;19954;-75
2022/11/30 03:49:08;;;;;;;;;;;22.70;85.10;;;;;;5055565;28;20582;-74
2022/11/30 03:51:35;;;;;;;;;;;22.80;85.00;;;;;;5056560;28;19919;-74
2022/11/30 03:54:02;;;;;;;;;;;23.10;84.70;;;;;;5048163;28;20069;-71
2022/11/30 03:56:28;;;;;;;;;;;23.20;84.90;;;;;;5042528;28;19912;-71
2022/11/30 03:58:55;;;;;;;;;;;23.10;83.80;;;;;;5046718;28;19912;-71
2022/11/30 04:01:22;;;;;;;;;;;23.00;83.90;;;;;;5047596;28;19955;-74
2022/11/30 04:03:50;;;;;;;;;;;22.70;84.50;;;;;;5053147;28;19917;-77
2022/11/30 04:06:17;;;;;;;;;;;22.50;85.20;;;;;;5055391;28;19908;-77
2022/11/30 04:08:44;;;;;;;;;;;22.40;85.80;;;;;;5048554;28;19916;-73
2022/11/30 04:11:10;;;;;;;;;;;22.10;85.30;;;;;;5054618;28;20000;-73
2022/11/30 04:13:38;;;;;;;;;;;21.90;86.40;;;;;;5055326;28;19963;-78
2022/11/30 04:16:05;;;;;;;;;;;22.00;86.40;;;;;;5055168;28;19913;-74
2022/11/30 04:18:32;;;;;;;;;;;22.00;85.80;;;;;;5055577;28;20365;-74
2022/11/30 04:20:59;;;;;;;;;;;22.00;86.40;;;;;;5055438;28;20027;-75
2022/11/30 04:23:28;;;;;;;;;;;22.00;85.90;;;;;;5037364;28;19925;-73
2022/11/30 04:25:55;;;;;;;;;;;22.10;85.50;;;;;;5054487;28;19919;-73
2022/11/30 04:28:22;;;;;;;;;;;22.10;84.90;;;;;;5055946;28;20347;-72
2022/11/30 04:30:49;;;;;;;;;;;22.00;83.90;;;;;;5054729;28;19908;-71
2022/11/30 04:33:16;;;;;;;;;;;22.00;84.70;;;;;;5056359;28;19971;-72
2022/11/30 04:35:45;;;;;;;;;;;22.20;83.90;;;;;;5051319;28;19913;-72
2022/11/30 04:38:16;;;;;;;;;;;22.00;83.90;;;;;;5041972;28;19923;-74
2022/11/30 04:40:43;;;;;;;;;;;22.20;84.30;;;;;;5050906;27;19916;-74
2022/11/30 04:43:10;;;;;;;;;;;22.20;84.00;;;;;;5047171;28;20019;-72
2022/11/30 04:45:37;;;;;;;;;;;22.10;84.30;;;;;;5058177;28;19913;-72
2022/11/30 04:48:04;;;;;;;;;;;22.10;84.40;;;;;;5057372;28;19951;-72
2022/11/30 04:50:31;;;;;;;;;;;22.20;84.10;;;;;;5049999;28;19945;-74
2022/11/30 04:52:58;;;;;;;;;;;22.30;83.60;;;;;;5037761;28;20270;-72
2022/11/30 04:55:25;;;;;;;;;;;22.20;83.40;;;;;;5055927;28;20003;-77
2022/11/30 04:57:51;;;;;;;;;;;22.20;84.10;;;;;;5053367;28;19931;-73
2022/11/30 05:00:18;;;;;;;;;;;22.20;84.10;;;;;;5056318;28;19936;-74
2022/11/30 05:02:45;;;;;;;;;;;22.40;83.90;;;;;;5056587;28;19995;-75
2022/11/30 05:05:12;;;;;;;;;;;22.60;82.60;;;;;;5058820;28;19912;-75
2022/11/30 05:07:39;;;;;;;;;;;22.40;81.90;;;;;;5052924;28;19942;-77
2022/11/30 05:10:06;;;;;;;;;;;22.30;82.20;;;;;;5034729;28;19931;-74
2022/11/30 05:12:33;;;;;;;;;;;22.20;82.20;;;;;;5056473;28;19939;-73
2022/11/30 05:15:00;;;;;;;;;;;22.20;82.30;;;;;;5052572;28;19912;-75
2022/11/30 05:17:26;;;;;;;;;;;22.10;83.00;;;;;;5045954;28;20007;-76
2022/11/30 05:19:53;;;;;;;;;;;22.00;83.20;;;;;;5049108;28;20012;-72
2022/11/30 05:22:20;;;;;;;;;;;21.90;84.00;;;;;;5048939;28;19916;-75
2022/11/30 05:24:46;;;;;;;;;;;21.90;84.40;;;;;;5048469;28;19928;-75
2022/11/30 05:27:13;;;;;;;;;;;21.70;82.00;;;;;;5047096;28;20108;-73
2022/11/30 05:29:39;;;;;;;;;;;21.80;82.60;;;;;;5053340;28;20332;-74
2022/11/30 05:32:06;;;;;;;;;;;21.90;82.50;;;;;;5041904;28;20026;-76
2022/11/30 05:34:33;;;;;;;;;;;22.00;82.30;;;;;;5047922;28;19916;-77
2022/11/30 05:36:59;;;;;;;;;;;22.00;82.40;;;;;;5052780;28;19960;-74
2022/11/30 05:39:26;;;;;;;;;;;21.90;82.20;;;;;;5044546;28;19948;-75
2022/11/30 05:41:53;;;;;;;;;;;21.60;82.00;;;;;;5055166;28;19917;-74
2022/11/30 05:44:19;;;;;;;;;;;21.60;82.20;;;;;;5051763;28;19966;-73
2022/11/30 05:46:46;;;;;;;;;;;21.60;83.20;;;;;;5043062;28;19924;-75
2022/11/30 05:49:13;;;;;;;;;;;21.60;83.60;;;;;;5052645;28;19920;-77
2022/11/30 05:51:40;;;;;;;;;;;21.60;83.10;;;;;;5056307;28;19978;-80
2022/11/30 05:54:07;;;;;;;;;;;21.50;83.60;;;;;;5054714;28;19946;-74
2022/11/30 05:56:34;;;;;;;;;;;21.50;84.90;;;;;;5054346;28;19920;-76
2022/11/30 05:59:00;;;;;;;;;;;21.50;84.90;;;;;;5055235;28;20261;-73
2022/11/30 06:01:28;;;;;;;;;;;21.30;85.30;;;;;;5058519;28;19916;-72
2022/11/30 06:03:54;;;;;;;;;;;21.50;85.70;;;;;;5056610;28;19917;-74
2022/11/30 06:06:22;;;;;;;;;;;21.80;85.40;;;;;;5054980;28;20405;-70
2022/11/30 06:08:49;;;;;;;;;;;22.30;83.10;;;;;;5051015;28;19958;-71
2022/11/30 06:11:16;;;;;;;;;;;22.80;81.60;;;;;;5051850;28;19909;-72
2022/11/30 06:13:43;;;;;;;;;;;22.90;81.80;;;;;;5051252;28;19920;-72
2022/11/30 06:16:09;;;;;;;;;;;23.10;82.10;;;;;;5053025;28;20456;-71
2022/11/30 06:18:37;;;;;;;;;;;23.10;82.70;;;;;;5055689;28;20353;-70
2022/11/30 06:21:05;;;;;;;;;;;23.00;82.30;;;;;;5051845;28;19962;-72
2022/11/30 06:23:32;;;;;;;;;;;22.70;82.40;;;;;;5057107;28;19920;-72
2022/11/30 06:26:02;;;;;;;;;;;22.60;84.80;;;;;;5055281;28;19908;-72
2022/11/30 06:28:28;;;;;;;;;;;22.80;83.50;;;;;;5057616;28;19915;-71
2022/11/30 06:31:02;;;;;;;;;;;22.90;83.10;;;;;;5055748;28;19912;-72
2022/11/30 06:33:28;;;;;;;;;;;23.10;83.40;;;;;;5044247;28;20047;-70
2022/11/30 06:35:55;;;;;;;;;;;23.40;83.60;;;;;;5035469;28;19920;-72
2022/11/30 06:38:23;;;;;;;;;;;23.30;81.80;;;;;;5036193;28;20043;-74
2022/11/30 06:40:49;;;;;;;;;;;23.20;83.40;;;;;;5038451;28;20108;-71
2022/11/30 06:43:16;;;;;;;;;;;23.10;82.30;;;;;;5053825;28;19912;-71
2022/11/30 06:45:43;;;;;;;;;;;22.80;83.40;;;;;;5057717;28;19912;-72
2022/11/30 06:48:11;;;;;;;;;;;22.70;83.90;;;;;;5054735;28;19962;-74
2022/11/30 06:50:37;;;;;;;;;;;22.70;84.80;;;;;;5058325;28;20039;-73
2022/11/30 06:53:04;;;;;;;;;;;22.60;84.10;;;;;;5054738;28;20004;-73
2022/11/30 06:55:31;;;;;;;;;;;22.80;84.40;;;;;;5057498;28;19908;-72
2022/11/30 06:58:07;;;;;;;;;;;22.80;85.00;;;;;;5037176;28;19962;-73
2022/11/30 07:00:35;;;;;;;;;;;22.40;85.30;;;;;;5036671;28;20289;-73
2022/11/30 07:03:01;;;;;;;;;;;22.10;86.30;;;;;;5036291;28;20022;-72
2022/11/30 07:05:28;;;;;;;;;;;21.80;87.90;;;;;;5034846;28;19920;-72
2022/11/30 07:07:55;;;;;;;;;;;21.70;88.60;;;;;;5036972;28;19916;-72
2022/11/30 07:10:21;;;;;;;;;;;21.80;87.50;;;;;;5049966;28;19915;-71
2022/11/30 07:12:49;;;;;;;;;;;21.90;87.50;;;;;;5056587;28;20275;-74
2022/11/30 07:15:15;;;;;;;;;;;21.80;87.10;;;;;;5054870;28;19909;-73
2022/11/30 07:17:42;;;;;;;;;;;21.50;88.00;;;;;;5057184;28;20349;-71
2022/11/30 07:20:09;;;;;;;;;;;21.40;88.50;;;;;;5049715;28;19913;-73
2022/11/30 07:22:35;;;;;;;;;;;21.40;88.90;;;;;;5037000;28;19913;-74
2022/11/30 07:27:46;;;;;;;;;;;20.90;88.90;;;;;;5037168;28;20372;-73
2022/11/30 07:30:13;;;;;;;;;;;20.70;90.00;;;;;;5034668;28;19916;-72
2022/11/30 07:32:40;;;;;;;;;;;20.70;90.40;;;;;;5037489;28;19917;-73
2022/11/30 07:35:07;;;;;;;;;;;20.70;90.20;;;;;;5036221;28;19909;-71
2022/11/30 07:37:33;;;;;;;;;;;20.60;90.00;;;;;;5042844;28;19913;-72
2022/11/30 07:40:00;;;;;;;;;;;20.50;90.30;;;;;;5056201;28;19913;-73
2022/11/30 07:42:26;;;;;;;;;;;20.40;90.30;;;;;;5056211;28;19908;-73
2022/11/30 07:44:53;;;;;;;;;;;20.30;90.40;;;;;;5043469;28;19920;-73
2022/11/30 07:47:20;;;;;;;;;;;20.30;90.40;;;;;;5033082;28;19951;-73
2022/11/30 07:49:47;;;;;;;;;;;20.30;90.80;;;;;;5036781;28;20327;-73
2022/11/30 07:52:13;;;;;;;;;;;20.30;91.00;;;;;;5036759;28;20361;-75
2022/11/30 07:54:40;;;;;;;;;;;20.30;91.30;;;;;;5036599;28;19920;-72
2022/11/30 07:57:07;;;;;;;;;;;20.30;91.40;;;;;;5035707;28;20323;-72
2022/11/30 07:59:33;;;;;;;;;;;20.30;91.50;;;;;;5035463;28;19909;-74
2022/11/30 08:02:00;;;;;;;;;;;20.20;91.60;;;;;;5036810;28;19955;-73
2022/11/30 08:04:27;;;;;;;;;;;20.20;91.60;;;;;;5035289;28;19937;-72
2022/11/30 08:06:54;;;;;;;;;;;20.00;91.80;;;;;;5036754;28;19912;-72
2022/11/30 08:09:20;;;;;;;;;;;20.00;91.80;;;;;;5054922;28;19923;-73
2022/11/30 08:11:48;;;;;;;;;;;19.90;92.00;;;;;;5061521;28;19916;-74
2022/11/30 08:14:14;;;;;;;;;;;19.80;92.10;;;;;;5059598;28;20323;-74
2022/11/30 08:16:42;;;;;;;;;;;19.70;92.40;;;;;;5059757;28;19913;-73
2022/11/30 08:19:09;;;;;;;;;;;19.70;92.60;;;;;;5058910;28;19913;-74
2022/11/30 08:21:36;;;;;;;;;;;19.70;92.60;;;;;;5059329;28;20668;-71
2022/11/30 08:24:04;;;;;;;;;;;19.70;92.50;;;;;;5060210;28;19932;-72
2022/11/30 08:26:31;;;;;;;;;;;19.60;92.90;;;;;;5041851;28;19998;-71
2022/11/30 08:28:59;;;;;;;;;;;19.60;93.00;;;;;;5040486;28;20526;-72
2022/11/30 08:31:27;;;;;;;;;;;19.60;93.00;;;;;;5041365;28;20046;-71
2022/11/30 08:33:55;;;;;;;;;;;19.60;93.20;;;;;;5060065;28;20029;-72
2022/11/30 08:36:22;;;;;;;;;;;19.60;93.30;;;;;;5057482;28;20266;-71
2022/11/30 08:38:49;;;;;;;;;;;19.60;93.10;;;;;;5059890;28;19962;-71
2022/11/30 08:41:18;;;;;;;;;;;19.60;93.30;;;;;;5059024;28;19909;-72
2022/11/30 08:43:45;;;;;;;;;;;19.60;93.20;;;;;;5059215;28;19908;-72
2022/11/30 08:46:12;;;;;;;;;;;19.60;93.50;;;;;;5042246;28;20008;-71
2022/11/30 08:48:39;;;;;;;;;;;19.50;93.50;;;;;;5039172;28;19999;-71
2022/11/30 08:51:08;;;;;;;;;;;19.40;93.60;;;;;;5039814;28;19916;-73
2022/11/30 08:53:35;;;;;;;;;;;19.50;93.80;;;;;;5038602;28;19921;-72
2022/11/30 08:56:11;;;;;;;;;;;19.50;93.80;;;;;;5051491;28;19916;-72
2022/11/30 08:58:38;;;;;;;;;;;19.50;94.00;;;;;;5058472;28;19909;-72
2022/11/30 09:01:15;;;;;;;;;;;19.50;94.00;;;;;;5041943;28;19913;-72
2022/11/30 09:03:43;;;;;;;;;;;19.40;94.10;;;;;;5037387;28;20197;-72
2022/11/30 09:06:13;;;;;;;;;;;19.40;94.50;;;;;;5040112;28;19909;-70
2022/11/30 09:08:41;;;;;;;;;;;19.40;94.50;;;;;;5041619;28;19912;-71
2022/11/30 09:11:12;;;;;;;;;;;19.40;94.50;;;;;;5047829;28;19995;-72
2022/11/30 09:13:39;;;;;;;;;;;19.40;94.40;;;;;;5056233;28;19924;-72
2022/11/30 09:16:06;;;;;;;;;;;19.30;94.50;;;;;;5059430;28;19916;-72
2022/11/30 09:18:33;;;;;;;;;;;19.40;94.30;;;;;;5054257;28;20157;-73
2022/11/30 09:21:00;;;;;;;;;;;19.30;94.60;;;;;;5039107;28;19913;-72
2022/11/30 09:23:27;;;;;;;;;;;19.30;94.80;;;;;;5039424;28;19924;-71
2022/11/30 09:25:55;;;;;;;;;;;19.30;95.00;;;;;;5039031;28;19916;-72
2022/11/30 09:28:22;;;;;;;;;;;19.20;94.90;;;;;;5049278;28;19913;-72
2022/11/30 09:30:48;;;;;;;;;;;19.20;95.00;;;;;;5056548;28;20685;-72
2022/11/30 09:33:15;;;;;;;;;;;19.20;95.10;;;;;;5059337;28;19920;-74
2022/11/30 09:35:42;;;;;;;;;;;19.20;95.30;;;;;;5056723;28;20280;-71
2022/11/30 09:38:08;;;;;;;;;;;19.10;95.10;;;;;;5058911;28;20011;-71
2022/11/30 09:40:36;;;;;;;;;;;19.10;95.40;;;;;;5057095;28;20688;-73
2022/11/30 09:43:15;;;;;;;;;;;19.10;95.50;;;;;;5051883;28;20278;-70
2022/11/30 09:45:48;;;;;;;;;;;19.20;95.50;;;;;;5053062;28;19966;-72
2022/11/30 09:48:27;;;;;;;;;;;19.10;95.50;;;;;;5057988;28;19909;-72
2022/11/30 09:50:54;;;;;;;;;;;19.20;95.40;;;;;;5056734;28;19912;-73
2022/11/30 09:53:33;;;;;;;;;;;19.00;95.60;;;;;;5057678;28;19954;-72
2022/11/30 09:55:59;;;;;;;;;;;19.00;95.70;;;;;;5057563;28;19928;-71
2022/11/30 09:58:47;;;;;;;;;;;19.00;95.60;;;;;;5049784;28;19912;-71
2022/11/30 10:01:17;;;;;;;;;;;19.00;95.60;;;;;;5055717;28;19919;-72
2022/11/30 10:03:44;;;;;;;;;;;19.00;95.50;;;;;;5050098;28;19920;-72
2022/11/30 10:06:16;;;;;;;;;;;19.00;95.70;;;;;;5037944;28;19913;-73
2022/11/30 10:08:43;;;;;;;;;;;18.90;95.60;;;;;;5038212;28;20385;-72
2022/11/30 10:11:28;;;;;;;;;;;19.00;95.90;;;;;;5038819;28;19964;-72
2022/11/30 10:14:16;;;;;;;;;;;19.00;95.70;;;;;;5034447;28;19921;-73
2022/11/30 10:17:01;;;;;;;;;;;19.00;95.80;;;;;;5034382;28;19909;-73
2022/11/30 10:19:53;;;;;;;;;;;19.00;95.60;;;;;;5037036;28;20000;-73
2022/11/30 10:22:20;;;;;;;;;;;19.00;95.60;;;;;;5038721;28;19913;-73
2022/11/30 10:24:47;;;;;;;;;;;19.10;95.80;;;;;;5036016;28;20319;-72
2022/11/30 10:27:17;;;;;;;;;;;19.00;95.70;;;;;;5053283;28;19974;-72
2022/11/30 10:29:44;;;;;;;;;;;19.10;96.00;;;;;;5055994;28;20375;-73
2022/11/30 10:32:18;;;;;;;;;;;19.10;95.70;;;;;;5055622;28;19963;-73
2022/11/30 10:34:48;;;;;;;;;;;19.10;95.90;;;;;;5055455;28;19912;-73
2022/11/30 10:37:15;;;;;;;;;;;19.00;96.00;;;;;;5044641;28;20014;-71
2022/11/30 10:40:01;;;;;;;;;;;19.00;96.30;;;;;;5035595;28;19909;-74
2022/11/30 10:42:32;;;;;;;;;;;19.10;96.30;;;;;;5023018;28;19913;-73
2022/11/30 10:44:59;;;;;;;;;;;19.00;96.10;;;;;;5035254;28;19991;-72
2022/11/30 10:47:32;;;;;;;;;;;19.00;96.20;;;;;;5037880;28;20002;-73
2022/11/30 10:49:59;;;;;;;;;;;19.10;96.30;;;;;;5035047;28;20062;-72
2022/11/30 10:52:28;;;;;;;;;;;19.00;96.50;;;;;;5051257;28;19916;-73
2022/11/30 10:54:55;;;;;;;;;;;19.00;96.50;;;;;;5055115;28;19913;-73
2022/11/30 10:57:24;;;;;;;;;;;19.00;96.50;;;;;;5057247;28;19931;-72
2022/11/30 10:59:53;;;;;;;;;;;19.00;96.50;;;;;;5054926;28;19940;-72
2022/11/30 11:02:37;;;;;;;;;;;19.00;96.70;;;;;;5057114;28;19912;-73
2022/11/30 11:05:13;;;;;;;;;;;18.90;96.80;;;;;;5044165;28;20719;-72
2022/11/30 11:07:51;;;;;;;;;;;18.90;97.00;;;;;;5037385;28;19909;-72
2022/11/30 11:10:19;;;;;;;;;;;19.00;97.00;;;;;;5037197;28;19974;-72
2022/11/30 11:12:49;;;;;;;;;;;19.00;97.10;;;;;;5036524;28;19917;-73
2022/11/30 11:15:24;;;;;;;;;;;19.00;97.10;;;;;;5036877;28;20400;-73
2022/11/30 11:17:51;;;;;;;;;;;19.00;97.10;;;;;;5046717;28;19919;-73
2022/11/30 11:20:29;;;;;;;;;;;19.10;96.90;;;;;;5055863;28;19959;-72
2022/11/30 11:22:56;;;;;;;;;;;19.10;96.80;;;;;;5050503;28;20357;-73
2022/11/30 11:25:27;;;;;;;;;;;19.00;96.80;;;;;;5057400;28;19913;-74
2022/11/30 11:27:55;;;;;;;;;;;19.10;96.90;;;;;;5054582;28;19950;-72
2022/11/30 11:30:24;;;;;;;;;;;19.10;97.00;;;;;;5057521;28;19908;-73
2022/11/30 11:32:58;;;;;;;;;;;19.20;97.00;;;;;;5046663;28;20642;-71
2022/11/30 11:35:42;;;;;;;;;;;19.10;96.20;;;;;;5035621;28;19960;-74
2022/11/30 11:38:41;;;;;;;;;;;19.00;96.30;;;;;;5051387;28;20734;-72
2022/11/30 11:41:22;;;;;;;;;;;19.00;96.40;;;;;;5042566;28;20004;-72
2022/11/30 11:44:00;;;;;;;;;;;19.00;96.30;;;;;;5042507;28;19912;-72
2022/11/30 11:46:28;;;;;;;;;;;19.10;96.60;;;;;;5040822;28;19920;-70
2022/11/30 11:49:00;;;;;;;;;;;19.10;96.30;;;;;;5040204;28;20629;-73
2022/11/30 11:51:33;;;;;;;;;;;19.10;96.30;;;;;;5039678;28;19909;-72
2022/11/30 11:54:01;;;;;;;;;;;19.10;95.90;;;;;;5039750;28;19923;-71
2022/11/30 11:56:30;;;;;;;;;;;19.10;95.90;;;;;;5039973;28;19990;-71
2022/11/30 11:59:09;;;;;;;;;;;19.10;95.90;;;;;;5039731;28;19913;-72
2022/11/30 12:01:49;;;;;;;;;;;19.00;95.60;;;;;;5055384;28;19952;-72
2022/11/30 12:04:22;;;;;;;;;;;19.00;95.80;;;;;;5058715;28;20003;-72
2022/11/30 12:06:50;;;;;;;;;;;19.00;95.90;;;;;;5048912;28;19924;-71
2022/11/30 12:09:21;;;;;;;;;;;19.00;95.90;;;;;;5037247;28;19909;-71
2022/11/30 12:11:49;;;;;;;;;;;19.00;95.80;;;;;;5040358;28;19917;-72
2022/11/30 12:14:17;;;;;;;;;;;19.10;95.60;;;;;;5037029;28;19917;-72
2022/11/30 12:16:43;;;;;;;;;;;19.10;95.40;;;;;;5039213;28;19913;-71
2022/11/30 12:19:13;;;;;;;;;;;19.10;95.40;;;;;;5039308;28;19916;-72
2022/11/30 12:21:43;;;;;;;;;;;19.10;95.40;;;;;;5040666;28;20365;-72
2022/11/30 12:24:17;;;;;;;;;;;19.10;95.20;;;;;;5039042;28;19921;-73
2022/11/30 12:26:46;;;;;;;;;;;19.10;95.10;;;;;;5040181;28;19947;-71
2022/11/30 12:29:18;;;;;;;;;;;19.10;94.90;;;;;;5038843;28;20392;-74
2022/11/30 12:32:03;;;;;;;;;;;19.10;95.00;;;;;;5046576;28;19913;-72
2022/11/30 12:34:37;;;;;;;;;;;19.00;94.90;;;;;;5059686;28;19916;-73
2022/11/30 12:37:06;;;;;;;;;;;19.00;95.10;;;;;;5059000;28;19919;-72
2022/11/30 12:39:49;;;;;;;;;;;19.00;95.20;;;;;;5059204;28;19995;-72
2022/11/30 12:42:27;;;;;;;;;;;19.00;95.00;;;;;;5049330;28;19913;-71
2022/11/30 12:45:08;;;;;;;;;;;19.00;95.10;;;;;;5040257;28;19932;-71
2022/11/30 12:48:00;;;;;;;;;;;18.90;95.20;;;;;;5038660;28;19963;-73
2022/11/30 12:50:29;;;;;;;;;;;18.90;95.20;;;;;;5038562;28;19909;-70
2022/11/30 12:53:14;;;;;;;;;;;19.00;95.30;;;;;;5040032;28;20347;-71
2022/11/30 12:55:41;;;;;;;;;;;19.00;95.50;;;;;;5037381;28;19996;-70
2022/11/30 12:58:27;;;;;;;;;;;19.00;95.40;;;;;;5039077;28;19920;-70
2022/11/30 13:01:00;;;;;;;;;;;19.00;95.30;;;;;;5039016;28;20003;-72
2022/11/30 13:03:42;;;;;;;;;;;19.00;95.40;;;;;;5037508;28;20104;-71
2022/11/30 13:06:13;;;;;;;;;;;19.00;95.50;;;;;;5038223;28;19916;-72
2022/11/30 13:08:54;;;;;;;;;;;19.10;95.40;;;;;;5038295;28;19909;-73
2022/11/30 13:11:47;;;;;;;;;;;19.00;95.50;;;;;;5038434;28;20089;-72
2022/11/30 13:14:20;;;;;;;;;;;19.00;95.70;;;;;;5035311;28;19995;-71
2022/11/30 13:16:57;;;;;;;;;;;19.00;95.70;;;;;;5040431;28;19940;-70
2022/11/30 13:19:37;;;;;;;;;;;19.00;95.80;;;;;;5037455;28;19919;-70
2022/11/30 13:22:06;;;;;;;;;;;19.00;95.90;;;;;;5039354;28;19916;-71
2022/11/30 13:24:37;;;;;;;;;;;19.00;95.80;;;;;;5039401;28;19979;-71
2022/11/30 13:27:19;;;;;;;;;;;19.00;96.00;;;;;;5039586;28;20317;-71
2022/11/30 13:29:46;;;;;;;;;;;19.00;96.10;;;;;;5038333;28;19920;-70
2022/11/30 13:32:16;;;;;;;;;;;19.00;96.00;;;;;;5038340;28;19955;-72
2022/11/30 13:34:43;;;;;;;;;;;19.00;96.30;;;;;;5038136;28;19909;-71
2022/11/30 13:37:18;;;;;;;;;;;19.00;96.40;;;;;;5037849;28;19915;-71
2022/11/30 13:39:46;;;;;;;;;;;19.10;96.60;;;;;;5037820;28;19909;-73
2022/11/30 13:42:31;;;;;;;;;;;19.10;96.30;;;;;;5053699;28;19923;-71
2022/11/30 13:45:01;;;;;;;;;;;19.00;96.20;;;;;;5058321;28;19913;-72
2022/11/30 13:47:33;;;;;;;;;;;18.90;96.40;;;;;;5057193;28;19913;-71
2022/11/30 13:50:07;;;;;;;;;;;18.90;96.60;;;;;;5058297;28;20269;-70
2022/11/30 13:52:52;;;;;;;;;;;18.90;96.80;;;;;;5038626;28;19990;-70
2022/11/30 13:55:37;;;;;;;;;;;18.90;97.00;;;;;;5037336;28;19975;-71
2022/11/30 13:58:08;;;;;;;;;;;19.00;96.90;;;;;;5037232;28;20825;-72
2022/11/30 14:00:34;;;;;;;;;;;18.90;96.90;;;;;;5037734;28;19909;-71
2022/11/30 14:03:19;;;;;;;;;;;18.90;97.30;;;;;;5037615;28;19916;-71
2022/11/30 14:05:46;;;;;;;;;;;18.90;97.30;;;;;;5038732;28;20277;-71
2022/11/30 14:08:29;;;;;;;;;;;18.90;97.40;;;;;;5058306;28;19989;-72
2022/11/30 14:11:31;;;;;;;;;;;18.90;97.60;;;;;;5057283;28;20702;-72
2022/11/30 14:14:18;;;;;;;;;;;19.00;97.40;;;;;;5034730;28;19917;-71
2022/11/30 14:16:44;;;;;;;;;;;19.00;97.40;;;;;;5056568;28;20375;-72
2022/11/30 14:19:11;;;;;;;;;;;19.00;97.40;;;;;;5048892;28;20331;-71
2022/11/30 14:21:42;;;;;;;;;;;19.00;97.40;;;;;;5037004;28;19964;-72
2022/11/30 14:24:11;;;;;;;;;;;19.00;97.60;;;;;;5036969;28;19921;-71
2022/11/30 14:26:41;;;;;;;;;;;19.10;97.60;;;;;;5036674;28;20541;-71
2022/11/30 14:29:09;;;;;;;;;;;19.10;97.60;;;;;;5036581;28;19909;-71
2022/11/30 14:32:02;;;;;;;;;;;19.10;97.90;;;;;;5037872;28;19916;-71
2022/11/30 14:34:31;;;;;;;;;;;19.20;97.90;;;;;;5033922;28;19928;-70